createdAt,value
2022-09-24T00:08:21.001Z,97750
2022-09-24T00:20:20.555Z,97760
2022-09-24T00:32:20.631Z,97750
2022-09-24T00:44:20.491Z,97750
2022-09-24T00:56:20.545Z,97740
2022-09-24T01:08:20.996Z,97720
2022-09-24T01:20:21.132Z,97700
2022-09-24T01:32:20.570Z,97710
2022-09-24T01:44:20.559Z,97690
2022-09-24T01:56:20.832Z,97670
2022-09-24T02:08:20.723Z,97670
2022-09-24T02:20:20.486Z,97660
2022-09-24T02:32:20.522Z,97660
2022-09-24T02:44:21.065Z,97650
2022-09-24T02:56:20.551Z,97650
2022-09-24T03:08:21.018Z,97650
2022-09-24T03:20:20.549Z,97670
2022-09-24T03:32:20.526Z,97670
2022-09-24T03:44:21.134Z,97650
2022-09-24T03:56:20.508Z,97650
2022-09-24T04:08:20.905Z,97650
2022-09-24T04:20:20.659Z,97640
2022-09-24T04:32:20.553Z,97620
2022-09-24T04:44:20.552Z,97610
2022-09-24T04:56:20.540Z,97620
2022-09-24T05:08:20.572Z,97600
2022-09-24T05:20:20.554Z,97610
2022-09-24T05:32:20.548Z,97620
2022-09-24T05:44:20.546Z,97620
2022-09-24T05:56:20.515Z,97630
2022-09-24T06:08:20.530Z,97640
2022-09-24T06:20:20.547Z,97630
2022-09-24T06:32:20.559Z,97630
2022-09-24T06:44:20.601Z,97640
2022-09-24T06:56:20.575Z,97640
2022-09-24T07:08:20.598Z,97630
2022-09-24T07:20:20.677Z,97630
2022-09-24T07:32:20.588Z,97640
2022-09-24T07:44:20.525Z,97640
2022-09-24T07:56:20.600Z,97650
2022-09-24T08:08:20.568Z,97650
2022-09-24T08:20:20.647Z,97660
2022-09-24T08:32:21.369Z,97650
2022-09-24T08:44:20.539Z,97630
2022-09-24T08:56:20.734Z,97610
2022-09-24T09:08:45.097Z,97620
2022-09-24T09:20:20.576Z,97640
2022-09-24T09:32:20.680Z,97640
2022-09-24T09:44:21.098Z,97640
2022-09-24T09:56:20.638Z,97630
2022-09-24T10:08:20.869Z,97620
2022-09-24T10:20:20.663Z,97610
2022-09-24T10:32:20.915Z,97590
2022-09-24T10:44:20.517Z,97590
2022-09-24T10:56:20.703Z,97600
2022-09-24T11:08:20.680Z,97600
2022-09-24T11:20:20.536Z,97590
2022-09-24T11:32:20.932Z,97590
2022-09-24T11:44:20.561Z,97590
2022-09-24T11:56:20.584Z,97580
2022-09-24T12:08:21.229Z,97570
2022-09-24T12:20:21.348Z,97560
2022-09-24T12:32:21.080Z,97530
2022-09-24T12:44:22.279Z,97540
2022-09-24T12:56:20.753Z,97530
2022-09-24T13:08:20.684Z,97540
2022-09-24T13:20:20.625Z,97530
2022-09-24T13:32:20.978Z,97530
2022-09-24T13:44:21.185Z,97530
2022-09-24T13:56:20.590Z,97530
2022-09-24T14:08:21.232Z,97520
2022-09-24T14:20:21.026Z,97520
2022-09-24T14:32:20.535Z,97520
2022-09-24T14:44:21.256Z,97530
2022-09-24T14:56:20.798Z,97550
2022-09-24T15:08:20.930Z,97550
2022-09-24T15:20:20.579Z,97550
2022-09-24T15:32:21.061Z,97560
2022-09-24T15:44:20.741Z,97560
2022-09-24T15:56:21.315Z,97570
2022-09-24T16:08:20.595Z,97570
2022-09-24T16:20:20.610Z,97590
2022-09-24T16:32:20.821Z,97580
2022-09-24T16:44:20.709Z,97590
2022-09-24T16:56:20.926Z,97580
2022-09-24T17:08:20.982Z,97590
2022-09-24T17:20:21.086Z,97590
2022-09-24T17:32:20.538Z,97590
2022-09-24T17:44:20.595Z,97590
2022-09-24T17:56:21.000Z,97600
2022-09-24T18:08:21.331Z,97600
2022-09-24T18:20:20.963Z,97600
2022-09-24T18:32:21.295Z,97610
2022-09-24T18:44:20.925Z,97620
2022-09-24T18:56:21.033Z,97620
2022-09-24T19:08:20.866Z,97620
2022-09-24T19:20:21.192Z,97630
2022-09-24T19:32:21.212Z,97630
2022-09-24T19:44:21.154Z,97640
2022-09-24T19:56:21.231Z,97630
2022-09-24T20:08:20.750Z,97640
2022-09-24T20:20:21.262Z,97650
2022-09-24T20:32:20.858Z,97640
2022-09-24T20:44:20.728Z,97650
2022-09-24T20:56:21.137Z,97650
2022-09-24T21:08:20.632Z,97660
2022-09-24T21:20:20.589Z,97660
2022-09-24T21:32:20.600Z,97660
2022-09-24T21:44:20.529Z,97670
2022-09-24T21:56:20.573Z,97670
2022-09-24T22:08:20.661Z,97670
2022-09-24T22:20:20.504Z,97670
2022-09-24T22:32:20.547Z,97670
2022-09-24T22:44:20.557Z,97670
2022-09-24T22:56:20.553Z,97670
2022-09-24T23:08:20.574Z,97660
2022-09-24T23:20:20.559Z,97660
2022-09-24T23:32:20.538Z,97650
2022-09-24T23:44:20.758Z,97660
2022-09-24T23:56:20.722Z,97670
